Time;durP1;ratioP1;P1;durP2;ratioP2;P2;SDS_P1;SDS_P2;PMS_P1;PMS_P2;Temp;Humidity;BMP_temperature;BMP_pressure;BME280_temperature;BME280_humidity;BME280_pressure;Samples;Min_cycle;Max_cycle;Signal;HPM_P1;HPM_P2
2021/07/02 00:00:17;;;;;;;13.00;11.73;;;;;;;25.33;66.66;99894.27;1848745;77;22174;-61
2021/07/02 00:02:50;;;;;;;13.10;11.80;;;;;;;25.32;66.75;99891.71;1831280;77;22128;-62
2021/07/02 00:05:23;;;;;;;13.40;11.63;;;;;;;25.33;66.73;99888.03;1812921;77;22223;-51
2021/07/02 00:07:56;;;;;;;13.78;12.47;;;;;;;25.36;66.69;99890.48;1828244;77;23214;-50
2021/07/02 00:10:30;;;;;;;13.75;12.13;;;;;;;25.41;66.51;99894.13;1827373;77;22206;-50
2021/07/02 00:13:22;;;;;;;14.43;12.93;;;;;;;25.43;66.56;99900.24;1851738;77;22155;-50
2021/07/02 00:15:55;;;;;;;14.33;11.95;;;;;;;25.46;66.48;99902.21;1814132;77;22154;-60
2021/07/02 00:18:28;;;;;;;13.75;12.45;;;;;;;25.47;66.58;99901.23;1850144;77;22166;-61
2021/07/02 00:21:01;;;;;;;14.05;11.95;;;;;;;25.45;66.67;99899.16;1819584;77;22166;-62
2021/07/02 00:23:34;;;;;;;14.05;11.40;;;;;;;25.45;66.67;99905.89;1832338;77;22151;-62
2021/07/02 00:26:07;;;;;;;16.00;11.03;;;;;;;25.45;66.82;99907.74;1816265;77;22183;-50
2021/07/02 00:28:41;;;;;;;12.07;9.15;;;;;;;25.43;67.12;99907.81;1852903;77;22622;-49
2021/07/02 00:31:14;;;;;;;10.48;8.03;;;;;;;25.39;67.38;99900.97;1810760;77;22597;-63
2021/07/02 00:33:47;;;;;;;10.05;8.00;;;;;;;25.37;67.60;99911.89;1824115;77;22174;-50
2021/07/02 00:36:20;;;;;;;22.95;9.95;;;;;;;25.34;68.12;99921.56;1815981;77;22166;-50
2021/07/02 00:38:53;;;;;;;12.70;9.30;;;;;;;25.30;68.35;99930.03;1832668;77;22166;-62
2021/07/02 00:41:27;;;;;;;12.25;9.35;;;;;;;25.24;68.66;99933.58;1814443;77;22230;-62
2021/07/02 00:44:00;;;;;;;11.10;9.85;;;;;;;25.20;68.99;99932.13;1811425;77;22143;-51
2021/07/02 00:46:33;;;;;;;14.13;9.75;;;;;;;25.16;69.31;99932.00;1813015;77;22202;-62
2021/07/02 00:49:26;;;;;;;14.60;10.15;;;;;;;25.15;69.53;99932.98;1827948;77;22155;-50
2021/07/02 00:52:00;;;;;;;16.48;10.32;;;;;;;25.14;69.74;99939.84;1800595;77;22181;-51
2021/07/02 00:54:34;;;;;;;13.58;10.80;;;;;;;25.17;69.70;99924.28;1810587;77;22154;-60
2021/07/02 00:57:09;;;;;;;14.95;11.43;;;;;;;25.20;69.77;99908.36;1804774;77;22569;-51
2021/07/02 00:59:42;;;;;;;22.40;11.43;;;;;;;25.17;69.91;99899.22;1834563;77;22180;-51
2021/07/02 01:02:16;;;;;;;22.05;11.68;;;;;;;25.20;69.95;99895.77;1818211;77;22188;-62
2021/07/02 01:05:09;;;;;;;18.27;12.00;;;;;;;25.23;69.93;99901.37;1832160;77;22654;-62
2021/07/02 01:07:43;;;;;;;14.70;11.95;;;;;;;25.21;70.17;99900.17;1833856;77;22151;-60
2021/07/02 01:10:35;;;;;;;16.25;12.03;;;;;;;25.22;70.28;99899.19;1818945;77;22193;-62
2021/07/02 01:13:09;;;;;;;17.40;13.32;;;;;;;25.30;70.16;99886.94;1851716;77;22120;-52
2021/07/02 01:15:42;;;;;;;27.42;14.23;;;;;;;25.35;70.19;99888.27;1839943;77;22611;-61
2021/07/02 01:18:15;;;;;;;15.78;13.58;;;;;;;25.41;70.24;99897.66;1852890;77;22171;-61
2021/07/02 01:20:50;;;;;;;17.00;13.30;;;;;;;25.45;70.24;99896.45;1809354;77;22225;-61
2021/07/02 01:23:42;;;;;;;15.13;13.62;;;;;;;25.48;70.24;99887.28;1834569;77;22627;-61
2021/07/02 01:26:16;;;;;;;17.73;13.78;;;;;;;25.49;70.31;99883.61;1809227;77;22205;-61
2021/07/02 01:28:49;;;;;;;17.70;14.93;;;;;;;25.49;70.37;99876.88;1827117;77;22120;-51
2021/07/02 01:31:42;;;;;;;14.47;13.08;;;;;;;25.48;70.48;99869.78;1809419;77;22203;-61
2021/07/02 01:34:15;;;;;;;14.90;13.32;;;;;;;25.47;70.48;99870.25;1839432;77;22181;-61
2021/07/02 01:36:48;;;;;;;15.65;14.13;;;;;;;25.48;70.61;99878.70;1827430;77;22229;-52
2021/07/02 01:39:21;;;;;;;15.72;14.23;;;;;;;25.51;70.70;99886.52;1834563;77;22187;-61
2021/07/02 01:41:54;;;;;;;15.68;14.03;;;;;;;25.56;70.67;99881.25;1807580;77;22594;-51
2021/07/02 01:44:27;;;;;;;18.50;13.72;;;;;;;25.58;70.58;99869.38;1833947;77;22155;-52
2021/07/02 01:47:20;;;;;;;15.50;14.03;;;;;;;25.60;70.56;99859.33;1803781;77;22658;-51
2021/07/02 01:50:13;;;;;;;22.07;13.70;;;;;;;25.63;70.49;99861.73;1830496;77;22251;-62
2021/07/02 01:53:07;;;;;;;14.53;13.03;;;;;;;25.69;70.22;99859.03;1833828;77;22128;-61
2021/07/02 01:55:40;;;;;;;15.20;12.50;;;;;;;25.66;70.20;99860.12;1806015;77;22235;-61
2021/07/02 01:58:14;;;;;;;25.88;13.72;;;;;;;25.66;70.26;99860.64;1852905;77;22566;-51
2021/07/02 02:00:47;;;;;;;15.08;13.68;;;;;;;25.68;70.22;99855.98;1821248;77;22213;-62
2021/07/02 02:03:20;;;;;;;21.85;13.20;;;;;;;25.68;70.15;99851.42;1834347;77;22207;-52
2021/07/02 02:05:54;;;;;;;18.55;13.35;;;;;;;25.74;70.14;99854.59;1819554;77;22662;-50
2021/07/02 02:08:27;;;;;;;18.60;13.38;;;;;;;25.77;70.12;99843.55;1834570;77;22180;-51
2021/07/02 02:11:00;;;;;;;14.85;13.45;;;;;;;25.77;70.06;99851.64;1816437;77;22194;-61
2021/07/02 02:13:33;;;;;;;15.35;13.83;;;;;;;25.76;70.01;99858.02;1833366;77;22183;-51
2021/07/02 02:16:06;;;;;;;13.15;11.90;;;;;;;25.77;69.99;99856.55;1819045;77;22175;-61
2021/07/02 02:18:39;;;;;;;14.05;12.65;;;;;;;25.76;69.87;99864.27;1832016;77;22151;-51
2021/07/02 02:21:32;;;;;;;14.10;12.70;;;;;;;25.75;69.77;99865.26;1813185;77;22179;-60
2021/07/02 02:24:05;;;;;;;21.25;12.70;;;;;;;25.77;69.67;99859.72;1824003;77;22159;-51
2021/07/02 02:26:39;;;;;;;13.50;12.20;;;;;;;25.77;69.41;99861.94;1811759;77;22218;-50
2021/07/02 02:29:12;;;;;;;12.68;11.00;;;;;;;25.77;69.54;99859.72;1836954;77;22174;-61
2021/07/02 02:31:45;;;;;;;14.18;11.25;;;;;;;25.78;69.44;99847.95;1809513;77;22170;-61
2021/07/02 02:34:19;;;;;;;12.00;10.78;;;;;;;25.78;69.39;99846.61;1834596;77;22163;-60
2021/07/02 02:36:52;;;;;;;12.15;10.72;;;;;;;25.78;69.45;99840.75;1826614;77;22609;-50
2021/07/02 02:39:25;;;;;;;12.03;10.93;;;;;;;25.78;69.51;99842.09;1827079;77;22155;-50
2021/07/02 02:41:58;;;;;;;18.50;11.97;;;;;;;25.83;69.47;99852.47;1800833;77;22166;-61
2021/07/02 02:44:32;;;;;;;14.15;12.43;;;;;;;25.86;69.54;99848.64;1834582;77;22180;-50
2021/07/02 02:47:05;;;;;;;17.37;13.13;;;;;;;25.89;69.48;99843.86;1805220;77;22198;-51
2021/07/02 02:49:57;;;;;;;17.02;14.07;;;;;;;25.98;69.46;99848.95;1826425;77;22186;-50
2021/07/02 02:52:30;;;;;;;16.07;14.38;;;;;;;26.02;69.50;99847.70;1824007;77;22565;-60
2021/07/02 02:55:05;;;;;;;19.48;17.30;;;;;;;26.06;69.43;99850.97;1833266;77;22175;-50
2021/07/02 02:57:58;;;;;;;20.72;18.73;;;;;;;26.12;69.57;99856.72;1829200;77;22155;-59
2021/07/02 03:00:31;;;;;;;25.12;20.32;;;;;;;26.15;69.58;99857.47;1824938;77;22628;-61
2021/07/02 03:03:04;;;;;;;26.05;20.57;;;;;;;26.18;69.68;99860.74;1834662;77;22610;-50
2021/07/02 03:05:37;;;;;;;23.45;20.88;;;;;;;26.19;69.69;99861.61;1842849;77;22190;-50
2021/07/02 03:08:11;;;;;;;24.82;20.82;;;;;;;26.19;69.89;99859.75;1829605;77;22155;-60
2021/07/02 03:10:44;;;;;;;21.70;19.40;;;;;;;26.21;69.94;99861.83;1813011;77;22181;-61
2021/07/02 03:13:36;;;;;;;17.92;16.02;;;;;;;26.24;70.09;99853.47;1833302;77;22196;-57
2021/07/02 03:16:09;;;;;;;20.57;15.15;;;;;;;26.27;70.06;99861.30;1818478;77;22594;-61
2021/07/02 03:19:03;;;;;;;19.30;15.08;;;;;;;26.31;70.14;99862.38;1824009;77;22156;-61
2021/07/02 03:21:36;;;;;;;17.87;15.98;;;;;;;26.35;70.16;99872.76;1810088;77;22163;-62
2021/07/02 03:24:10;;;;;;;18.15;16.12;;;;;;;26.50;69.72;99871.07;1813356;77;22178;-50
2021/07/02 03:26:43;;;;;;;20.92;16.35;;;;;;;26.51;69.80;99874.97;1829515;77;22170;-51
2021/07/02 03:29:16;;;;;;;21.75;16.90;;;;;;;26.46;70.15;99877.24;1822971;77;22152;-62
2021/07/02 03:31:49;;;;;;;19.62;17.17;;;;;;;26.56;69.84;99870.02;1801533;77;22233;-51
2021/07/02 03:34:22;;;;;;;19.07;15.72;;;;;;;26.52;70.23;99878.53;1834481;77;22183;-51
2021/07/02 03:36:56;;;;;;;20.95;16.97;;;;;;;26.54;70.19;99867.95;1801361;77;22158;-52
2021/07/02 03:39:29;;;;;;;24.12;16.37;;;;;;;26.54;70.20;99866.60;1829859;77;22163;-62
2021/07/02 03:42:02;;;;;;;20.35;16.17;;;;;;;26.55;70.38;99868.31;1805859;77;22178;-60
2021/07/02 03:44:36;;;;;;;24.80;17.05;;;;;;;26.52;70.45;99865.05;1834557;77;22156;-61
2021/07/02 03:47:09;;;;;;;18.82;16.80;;;;;;;26.51;70.54;99879.02;1789993;77;22247;-60
2021/07/02 03:49:42;;;;;;;28.92;18.52;;;;;;;26.52;70.60;99878.02;1834454;77;22622;-62
2021/07/02 03:52:15;;;;;;;20.50;16.27;;;;;;;26.55;70.43;99868.31;1785040;77;22217;-63
2021/07/02 03:54:51;;;;;;;22.17;17.55;;;;;;;26.59;70.15;99872.97;1826030;77;22167;-62
2021/07/02 03:57:43;;;;;;;18.57;15.72;;;;;;;26.64;70.40;99875.25;1843936;77;22711;-51
2021/07/02 04:00:17;;;;;;;19.82;16.00;;;;;;;26.66;70.37;99887.63;1834909;77;22124;-62
2021/07/02 04:02:50;;;;;;;19.65;14.80;;;;;;;26.65;70.32;99903.47;1834569;77;22132;-51
2021/07/02 04:05:24;;;;;;;15.98;14.00;;;;;;;26.61;70.01;99897.97;1837902;77;22213;-53
2021/07/02 04:07:57;;;;;;;12.88;11.53;;;;;;;26.54;69.96;99894.09;1833726;77;22136;-60
2021/07/02 04:10:30;;;;;;;14.40;12.25;;;;;;;26.49;69.76;99885.07;1819105;77;22237;-57
2021/07/02 04:13:03;;;;;;;12.73;11.50;;;;;;;26.41;69.66;99879.48;1827648;77;22138;-57
2021/07/02 04:15:37;;;;;;;12.15;10.80;;;;;;;26.34;69.51;99881.84;1825772;77;22629;-58
2021/07/02 04:18:28;;;;;;;12.28;9.20;;;;;;;26.27;69.05;99881.53;1821748;77;22151;-59
2021/07/02 04:21:02;;;;;;;10.25;8.43;;;;;;;26.21;69.05;99891.49;1820145;77;22186;-58
2021/07/02 04:23:35;;;;;;;9.85;8.30;;;;;;;26.17;68.67;99895.44;1820524;77;22605;-57
2021/07/02 04:26:08;;;;;;;9.30;6.85;;;;;;;26.08;68.25;99893.02;1814946;77;22183;-59
2021/07/02 04:28:41;;;;;;;9.53;6.87;;;;;;;26.00;68.29;99896.02;1823798;77;22189;-58
2021/07/02 04:31:14;;;;;;;7.55;5.80;;;;;;;25.95;68.30;99902.65;1824003;77;22673;-56
2021/07/02 04:33:48;;;;;;;6.92;5.28;;;;;;;25.88;67.71;99892.02;1852927;77;22178;-55
2021/07/02 04:36:21;;;;;;;7.00;5.40;;;;;;;25.77;67.15;99884.85;1827077;77;22171;-56
2021/07/02 04:38:55;;;;;;;8.18;5.35;;;;;;;25.78;67.56;99876.25;1834622;77;22180;-55
2021/07/02 04:41:48;;;;;;;7.50;5.42;;;;;;;25.80;67.31;99844.64;1818720;77;22229;-56
2021/07/02 04:44:21;;;;;;;7.40;5.25;;;;;;;25.86;67.47;99823.91;1820610;77;22190;-55
2021/07/02 04:46:55;;;;;;;8.38;4.90;;;;;;;25.90;67.32;99836.61;1796806;77;22205;-59
2021/07/02 04:49:28;;;;;;;5.45;4.20;;;;;;;25.90;66.69;99852.31;1810414;77;22192;-59
2021/07/02 04:52:03;;;;;;;6.17;4.15;;;;;;;25.88;66.18;99850.23;1806450;77;22214;-61
2021/07/02 04:54:36;;;;;;;7.87;4.97;;;;;;;25.83;66.00;99854.66;1834213;77;22183;-53
2021/07/02 04:57:29;;;;;;;5.30;4.20;;;;;;;25.77;65.20;99874.55;1834514;77;22603;-54
2021/07/02 05:00:05;;;;;;;6.50;4.17;;;;;;;25.73;64.70;99870.40;1804405;77;22143;-54
2021/07/02 05:02:41;;;;;;;9.00;5.42;;;;;;;25.66;65.27;99874.95;1794730;77;28094;-55
2021/07/02 05:05:17;;;;;;;6.78;4.15;;;;;;;25.78;65.25;99873.56;1807047;77;22210;-59
2021/07/02 05:07:51;;;;;;;6.08;4.08;;;;;;;25.81;65.30;99882.73;1827750;77;20157;-60
2021/07/02 05:10:24;;;;;;;8.73;5.00;;;;;;;25.87;65.15;99883.56;1828552;77;22597;-58
2021/07/02 05:12:57;;;;;;;6.78;4.40;;;;;;;25.93;64.76;99879.48;1852640;77;22179;-62
2021/07/02 05:15:30;;;;;;;5.90;4.95;;;;;;;25.94;64.58;99883.89;1826314;77;22621;-59
2021/07/02 05:18:04;;;;;;;8.65;7.47;;;;;;;25.93;64.30;99875.44;1807408;77;22178;-54
2021/07/02 05:20:37;;;;;;;24.35;22.07;;;;;;;25.93;64.28;99861.48;1825710;77;22175;-60
2021/07/02 05:23:11;;;;;;;14.78;13.22;;;;;;;25.86;64.73;99841.91;1822593;77;22183;-54
2021/07/02 05:25:44;;;;;;;11.88;10.48;;;;;;;25.87;64.74;99819.35;1817577;77;22213;-59
2021/07/02 05:28:36;;;;;;;31.68;28.77;;;;;;;25.92;64.66;99805.86;1834560;77;22168;-54
2021/07/02 05:31:10;;;;;;;12.03;10.53;;;;;;;25.97;64.42;99801.41;1818296;77;22167;-59
2021/07/02 05:33:43;;;;;;;13.15;11.83;;;;;;;25.98;64.48;99793.68;1831153;77;22594;-55
2021/07/02 05:36:16;;;;;;;11.05;10.00;;;;;;;26.03;64.48;99786.05;1808223;77;22210;-60
2021/07/02 05:38:50;;;;;;;10.98;6.83;;;;;;;26.10;64.50;99780.97;1852897;77;22159;-53
2021/07/02 05:41:23;;;;;;;8.70;5.35;;;;;;;26.20;64.61;99777.86;1833244;77;22209;-53
2021/07/02 05:43:56;;;;;;;13.48;7.20;;;;;;;26.31;64.57;99784.16;1816813;77;22142;-61
2021/07/02 05:46:30;;;;;;;8.28;6.70;;;;;;;26.39;64.58;99786.53;1799616;77;22234;-60
2021/07/02 05:49:05;;;;;;;10.28;7.90;;;;;;;26.47;64.24;99789.92;1834568;77;22615;-54
2021/07/02 05:51:57;;;;;;;10.58;7.25;;;;;;;26.61;64.21;99794.55;1807576;77;22170;-60
2021/07/02 05:54:30;;;;;;;8.90;6.00;;;;;;;26.75;64.34;99796.02;1819095;77;22620;-54
2021/07/02 05:57:23;;;;;;;12.60;5.05;;;;;;;26.94;63.84;99803.33;1819586;77;22209;-61
2021/07/02 05:59:56;;;;;;;6.95;6.12;;;;;;;27.03;63.40;99805.20;1852859;77;22179;-61
2021/07/02 06:02:29;;;;;;;6.90;6.20;;;;;;;27.13;63.04;99806.59;1829301;77;22586;-60
2021/07/02 06:05:04;;;;;;;7.95;5.90;;;;;;;27.19;63.01;99811.40;1851818;77;22178;-62
2021/07/02 06:07:52;;;;;;;6.83;5.37;;;;;;;27.34;62.88;99820.45;1834653;77;22641;-54
2021/07/02 06:10:26;;;;;;;6.60;5.12;;;;;;;27.45;62.71;99831.97;1828445;77;22621;-62
2021/07/02 06:13:00;;;;;;;7.35;4.83;;;;;;;27.65;62.41;99840.59;1827190;77;22159;-54
2021/07/02 06:15:52;;;;;;;5.58;4.12;;;;;;;27.86;62.54;99850.77;1821801;77;22211;-62
2021/07/02 06:18:26;;;;;;;6.28;4.37;;;;;;;28.15;61.07;99858.00;1852888;77;22203;-61
2021/07/02 06:21:00;;;;;;;5.42;4.80;;;;;;;28.28;61.13;99856.84;1812570;77;22177;-55
2021/07/02 06:23:34;;;;;;;8.90;5.72;;;;;;;28.53;61.04;99854.46;1834560;77;22179;-63
2021/07/02 06:26:08;;;;;;;6.45;4.30;;;;;;;28.90;61.17;99854.47;1836819;77;22229;-63
2021/07/02 06:29:00;;;;;;;9.68;4.70;;;;;;;29.42;60.28;99860.29;1852908;77;22175;-60
2021/07/02 06:31:33;;;;;;;10.50;5.37;;;;;;;29.81;59.98;99854.05;1795118;77;22159;-54
2021/07/02 06:34:06;;;;;;;8.73;4.92;;;;;;;30.23;58.51;99847.59;1832170;77;22191;-55
2021/07/02 06:36:39;;;;;;;6.62;3.83;;;;;;;30.53;57.71;99854.38;1829559;77;22170;-63
2021/07/02 06:39:32;;;;;;;5.85;3.27;;;;;;;30.95;56.45;99859.49;1844674;77;22203;-55
2021/07/02 06:42:06;;;;;;;8.23;4.20;;;;;;;31.23;54.92;99863.84;1805925;77;22626;-63
2021/07/02 06:44:39;;;;;;;5.72;3.50;;;;;;;31.55;54.12;99861.70;1834576;77;22176;-56
2021/07/02 06:47:31;;;;;;;6.92;4.08;;;;;;;31.89;53.55;99853.91;1833429;77;22172;-55
2021/07/02 06:50:07;;;;;;;20.88;9.33;;;;;;;32.01;52.89;99848.95;1830941;77;22133;-55
2021/07/02 06:52:40;;;;;;;17.65;8.58;;;;;;;32.15;51.39;99839.76;1818961;77;27985;-63
2021/07/02 06:55:13;;;;;;;12.53;6.08;;;;;;;32.40;48.23;99826.13;1816164;77;22175;-64
2021/07/02 06:57:47;;;;;;;14.70;7.05;;;;;;;32.47;49.58;99832.05;1836248;77;22162;-63
2021/07/02 07:00:21;;;;;;;10.68;5.83;;;;;;;32.58;49.23;99824.53;1823316;77;22661;-65
2021/07/02 07:02:55;;;;;;;16.75;7.33;;;;;;;32.84;48.17;99831.58;1818879;77;22605;-55
2021/07/02 07:05:29;;;;;;;15.20;6.92;;;;;;;32.87;48.25;99833.45;1820109;77;22214;-65
2021/07/02 07:08:04;;;;;;;11.20;3.98;;;;;;;32.92;48.00;99823.37;1794298;77;22617;-64
2021/07/02 07:10:38;;;;;;;6.35;3.90;;;;;;;32.89;47.87;99825.95;1799442;77;28116;-55
2021/07/02 07:13:31;;;;;;;5.35;3.40;;;;;;;33.00;47.37;99824.69;1821259;77;22195;-56
2021/07/02 07:16:05;;;;;;;5.00;3.62;;;;;;;33.03;46.83;99824.83;1816440;77;22179;-55
2021/07/02 07:18:58;;;;;;;6.10;3.98;;;;;;;32.89;46.96;99817.78;1826978;77;22173;-56
2021/07/02 07:21:31;;;;;;;6.40;3.95;;;;;;;32.82;46.61;99811.80;1813406;77;22194;-64
2021/07/02 07:24:42;;;;;;;8.03;3.55;;;;;;;32.79;46.53;99811.66;1826795;77;22230;-55
2021/07/02 07:27:16;;;;;;;3.70;3.02;;;;;;;32.84;46.30;99818.83;1798599;77;22213;-65
2021/07/02 07:29:49;;;;;;;7.22;3.85;;;;;;;32.79;46.38;99822.56;1814681;77;22213;-55
2021/07/02 07:32:22;;;;;;;5.50;3.30;;;;;;;32.66;46.51;99827.22;1800744;77;22213;-55
2021/07/02 07:34:59;;;;;;;6.55;4.20;;;;;;;32.65;46.39;99824.66;1814436;77;22540;-65
2021/07/02 07:37:54;;;;;;;5.42;3.90;;;;;;;32.57;46.13;99833.73;1822351;77;22728;-55
2021/07/02 07:40:27;;;;;;;4.80;3.72;;;;;;;32.60;46.37;99834.73;1812791;77;22672;-63
2021/07/02 07:43:00;;;;;;;7.10;4.00;;;;;;;32.53;46.38;99831.84;1802150;77;28093;-55
2021/07/02 07:45:33;;;;;;;7.80;3.70;;;;;;;32.48;46.46;99832.39;1811784;77;22186;-58
2021/07/02 07:48:06;;;;;;;5.12;3.47;;;;;;;32.48;46.37;99828.80;1825527;77;22183;-55
2021/07/02 07:53:15;;;;;;;4.83;3.25;;;;;;;32.43;46.30;99829.34;1815386;77;22207;-65
2021/07/02 07:55:49;;;;;;;4.78;3.33;;;;;;;32.38;46.33;99829.01;1808323;77;22186;-64
2021/07/02 07:58:22;;;;;;;5.40;3.62;;;;;;;32.33;46.46;99830.91;1802954;77;22154;-55
2021/07/02 08:00:55;;;;;;;4.62;3.33;;;;;;;32.31;46.49;99838.40;1824594;77;22213;-56
2021/07/02 08:03:29;;;;;;;4.87;3.60;;;;;;;32.28;46.45;99830.58;1819585;77;22598;-55
2021/07/02 08:06:02;;;;;;;5.45;3.42;;;;;;;32.17;46.67;99829.55;1804481;77;22232;-64
2021/07/02 08:08:57;;;;;;;6.40;3.62;;;;;;;32.10;46.79;99829.89;1818126;77;22205;-64
2021/07/02 08:11:30;;;;;;;6.67;3.45;;;;;;;31.93;47.21;99830.44;1794920;77;22193;-54
2021/07/02 08:14:04;;;;;;;6.65;3.37;;;;;;;31.95;47.12;99825.67;1820965;77;22186;-65
2021/07/02 08:16:56;;;;;;;7.58;3.98;;;;;;;31.92;47.12;99828.73;1815498;77;22564;-55
2021/07/02 08:19:29;;;;;;;5.75;4.45;;;;;;;31.82;47.11;99837.92;1815787;77;22136;-55
2021/07/02 08:22:03;;;;;;;7.53;3.75;;;;;;;31.77;46.92;99840.83;1800465;77;22190;-66
2021/07/02 08:24:37;;;;;;;12.90;4.70;;;;;;;31.73;47.19;99849.84;1816675;77;22194;-55
2021/07/02 08:27:10;;;;;;;7.00;4.12;;;;;;;31.68;46.87;99872.59;1790025;77;22232;-65
2021/07/02 08:29:44;;;;;;;6.15;4.10;;;;;;;31.52;46.62;99878.34;1833684;77;22168;-54
2021/07/02 08:32:18;;;;;;;6.87;4.53;;;;;;;31.44;46.77;99876.48;1820888;77;22197;-65
2021/07/02 08:35:10;;;;;;;8.10;4.37;;;;;;;31.36;47.11;99862.00;1830984;77;22191;-64
2021/07/02 08:37:44;;;;;;;6.50;4.28;;;;;;;31.33;46.69;99860.48;1815281;77;22159;-64
2021/07/02 08:40:20;;;;;;;9.40;4.55;;;;;;;31.25;46.40;99865.41;1830129;77;22626;-54
2021/07/02 08:42:53;;;;;;;10.88;4.25;;;;;;;31.12;46.37;99876.72;1852787;77;22178;-55
2021/07/02 08:45:27;;;;;;;9.55;4.60;;;;;;;30.96;46.37;99880.21;1842421;77;22574;-54
2021/07/02 08:48:04;;;;;;;7.17;4.62;;;;;;;30.64;47.24;99880.42;1834003;77;22587;-64
2021/07/02 08:50:37;;;;;;;8.70;5.67;;;;;;;30.36;48.04;99872.94;1825699;77;23345;-64
2021/07/02 08:53:10;;;;;;;12.50;6.42;;;;;;;30.16;48.58;99876.37;1852791;77;22191;-64
2021/07/02 08:56:04;;;;;;;9.28;6.50;;;;;;;29.94;49.27;99896.20;1787529;77;22241;-64
2021/07/02 08:58:37;;;;;;;9.70;3.47;;;;;;;29.64;50.28;99918.13;1852886;77;22666;-53
2021/07/02 09:04:19;;;;;;;11.53;2.90;;;;;;;28.07;51.87;99922.75;1821466;77;22629;-57
2021/07/02 09:26:10;;;;;;;7.95;2.10;;;;;;;26.13;55.52;99791.52;1755751;81;21174;-57
2021/07/02 09:28:44;;;;;;;6.33;1.98;;;;;;;26.17;56.80;99784.03;1812988;77;22187;-55
2021/07/02 09:31:38;;;;;;;6.55;2.33;;;;;;;26.17;57.54;99790.77;1834583;77;22205;-56
2021/07/02 09:34:11;;;;;;;5.75;2.47;;;;;;;26.24;57.85;99790.60;1834489;77;22587;-56
2021/07/02 09:36:44;;;;;;;4.12;1.72;;;;;;;26.35;57.92;99803.13;1828380;77;23235;-56
2021/07/02 09:39:30;;;;;;;4.58;2.30;;;;;;;26.48;57.97;99809.16;1833746;77;22175;-57
2021/07/02 09:42:07;;;;;;;6.20;2.20;;;;;;;26.52;58.65;99813.78;1790969;77;28093;-55
2021/07/02 09:44:40;;;;;;;4.65;1.95;;;;;;;26.61;59.11;99817.02;1834100;77;22163;-56
2021/07/02 09:47:29;;;;;;;5.37;2.00;;;;;;;26.70;58.98;99824.78;1825599;77;22201;-54
2021/07/02 09:50:19;;;;;;;4.83;2.50;;;;;;;26.66;58.72;99819.29;1829217;77;22575;-54
2021/07/02 09:53:11;;;;;;;5.95;1.98;;;;;;;26.69;58.52;99820.37;1819101;77;22562;-54
2021/07/02 09:55:53;;;;;;;4.70;2.15;;;;;;;26.73;59.03;99825.85;1812612;77;22646;-53
2021/07/02 09:58:28;;;;;;;4.03;2.37;;;;;;;26.82;59.06;99834.52;1834536;77;22160;-54
2021/07/02 10:01:02;;;;;;;7.33;5.35;;;;;;;26.94;58.89;99827.15;1804671;77;28481;-58
2021/07/02 10:03:44;;;;;;;7.08;3.92;;;;;;;27.14;59.62;99825.34;1852816;77;22182;-57
2021/07/02 10:06:28;;;;;;;4.47;2.72;;;;;;;27.30;59.73;99825.30;1804544;77;22190;-53
2021/07/02 10:09:04;;;;;;;3.22;2.00;;;;;;;27.44;59.29;99815.91;1832570;77;22168;-59
2021/07/02 10:11:56;;;;;;;5.90;2.40;;;;;;;27.58;58.53;99810.59;1795099;77;22197;-53
2021/07/02 10:14:30;;;;;;;5.72;2.20;;;;;;;27.70;58.80;99813.52;1799977;77;22191;-52
2021/07/02 10:17:23;;;;;;;4.37;2.30;;;;;;;27.88;59.32;99814.11;1879971;74;22131;-59
2021/07/02 10:19:56;;;;;;;4.85;2.00;;;;;;;27.99;58.51;99803.13;1816830;77;22216;-59
2021/07/02 10:22:29;;;;;;;6.58;2.35;;;;;;;28.11;58.05;99799.75;1820057;77;22214;-52
2021/07/02 10:25:04;;;;;;;4.62;2.17;;;;;;;28.17;57.76;99796.48;1813573;77;22210;-53
2021/07/02 10:27:57;;;;;;;4.12;1.85;;;;;;;28.19;57.10;99792.30;1836242;77;22179;-53
2021/07/02 10:30:30;;;;;;;6.50;2.30;;;;;;;28.27;56.48;99792.39;1812718;77;22212;-60
2021/07/02 10:33:03;;;;;;;4.70;1.70;;;;;;;28.32;55.82;99791.95;1830554;77;22151;-52
2021/07/02 10:35:36;;;;;;;5.03;1.80;;;;;;;28.35;53.15;99791.15;1809697;77;22583;-62
2021/07/02 10:38:10;;;;;;;4.28;1.67;;;;;;;28.32;55.24;99797.38;1820190;77;22155;-52
2021/07/02 10:40:45;;;;;;;2.95;1.47;;;;;;;28.44;55.12;99796.67;1824131;77;22218;-52
2021/07/02 10:43:25;;;;;;;5.08;1.57;;;;;;;28.50;53.14;99793.38;1852518;77;22135;-52
2021/07/02 10:46:15;;;;;;;4.60;2.05;;;;;;;28.54;52.79;99792.56;1820543;77;22654;-52
2021/07/02 10:49:08;;;;;;;4.03;1.40;;;;;;;28.62;52.29;99793.53;1834347;77;22610;-52
2021/07/02 10:51:51;;;;;;;4.85;1.70;;;;;;;28.66;51.20;99787.83;1794627;77;22233;-52
2021/07/02 10:54:29;;;;;;;4.55;2.10;;;;;;;28.73;51.11;99784.83;1827242;77;22181;-52
2021/07/02 10:57:06;;;;;;;4.22;2.40;;;;;;;28.78;51.19;99787.97;1806284;77;22206;-52
2021/07/02 10:59:52;;;;;;;4.40;2.30;;;;;;;28.58;51.43;99793.97;1830749;77;22189;-52
2021/07/02 11:02:26;;;;;;;4.12;2.17;;;;;;;28.68;51.54;99783.11;1852663;77;20159;-52
2021/07/02 11:05:01;;;;;;;4.92;2.12;;;;;;;28.79;51.53;99784.27;1833636;77;22623;-52
2021/07/02 11:07:38;;;;;;;6.55;2.22;;;;;;;28.92;51.91;99787.98;1834343;77;22176;-52
2021/07/02 11:10:12;;;;;;;5.55;2.42;;;;;;;29.07;51.60;99786.43;1818854;77;22211;-52
2021/07/02 11:12:57;;;;;;;4.50;2.50;;;;;;;29.24;50.92;99786.60;1827935;77;22195;-52
2021/07/02 11:15:31;;;;;;;3.90;2.65;;;;;;;29.31;50.86;99782.27;1809592;77;22234;-52
2021/07/02 11:18:12;;;;;;;4.28;2.92;;;;;;;29.46;51.04;99778.53;1817298;77;22195;-52
2021/07/02 11:20:46;;;;;;;5.47;2.77;;;;;;;29.62;51.62;99779.64;1808739;77;22241;-52
2021/07/02 11:23:20;;;;;;;6.72;3.40;;;;;;;29.76;51.51;99768.24;1819549;77;22203;-62
2021/07/02 11:25:57;;;;;;;7.67;4.15;;;;;;;29.97;51.21;99776.04;1818949;77;22238;-53
2021/07/02 11:28:40;;;;;;;7.45;3.92;;;;;;;30.14;51.07;99784.28;1807884;77;28036;-63
2021/07/02 11:31:36;;;;;;;4.83;3.67;;;;;;;30.47;50.75;99780.89;1813447;77;22222;-52
2021/07/02 11:34:11;;;;;;;7.05;3.70;;;;;;;30.78;50.39;99771.67;1825330;77;22607;-53
2021/07/02 11:37:08;;;;;;;5.25;3.42;;;;;;;31.01;50.05;99768.34;1805022;77;22633;-63
2021/07/02 11:39:45;;;;;;;9.60;3.42;;;;;;;31.14;49.52;99761.88;1834518;77;22132;-53
2021/07/02 11:42:18;;;;;;;6.80;3.58;;;;;;;31.28;49.28;99764.98;1820408;77;22644;-63
2021/07/02 11:45:10;;;;;;;7.92;3.80;;;;;;;31.36;48.69;99762.28;1811486;77;22175;-53
2021/07/02 11:47:44;;;;;;;6.33;3.72;;;;;;;31.50;48.29;99763.98;1834545;77;22179;-53
2021/07/02 11:50:17;;;;;;;8.05;4.00;;;;;;;31.49;48.08;99759.56;1830286;77;22636;-64
2021/07/02 11:52:50;;;;;;;6.10;3.90;;;;;;;31.20;48.18;99760.90;1821083;77;23904;-53
2021/07/02 11:55:26;;;;;;;5.22;4.22;;;;;;;31.22;48.09;99750.22;1831155;77;22247;-56
2021/07/02 11:58:16;;;;;;;6.17;4.60;;;;;;;31.16;48.53;99757.69;1815059;77;22214;-53
2021/07/02 12:01:18;;;;;;;8.93;5.05;;;;;;;31.02;49.10;99765.97;1818235;77;22195;-53
2021/07/02 12:03:54;;;;;;;7.22;4.12;;;;;;;31.02;49.16;99767.32;1813375;77;22148;-64
2021/07/02 12:06:49;;;;;;;8.08;4.97;;;;;;;31.03;49.05;99764.95;1826266;77;20299;-53
2021/07/02 12:09:28;;;;;;;7.80;5.53;;;;;;;30.97;49.40;99762.89;1806944;77;28047;-64
2021/07/02 12:12:02;;;;;;;7.92;5.10;;;;;;;30.89;49.99;99762.38;1803328;77;22209;-64
2021/07/02 12:14:54;;;;;;;7.70;3.33;;;;;;;30.80;50.39;99761.48;1829447;77;22183;-63
2021/07/02 12:17:27;;;;;;;5.90;3.10;;;;;;;30.70;49.72;99762.13;1833721;77;22175;-64
2021/07/02 12:20:00;;;;;;;4.60;2.70;;;;;;;30.44;50.10;99766.28;1830172;77;22215;-64
2021/07/02 12:22:34;;;;;;;6.35;3.35;;;;;;;30.15;50.45;99768.35;1824256;77;22660;-63
2021/07/02 12:25:28;;;;;;;4.12;2.58;;;;;;;29.86;50.90;99776.27;1820331;77;22209;-53
2021/07/02 12:28:01;;;;;;;5.10;2.42;;;;;;;29.71;50.96;99770.57;1812174;77;22233;-62
2021/07/02 12:30:34;;;;;;;4.10;2.33;;;;;;;29.76;51.07;99770.12;1814691;77;22190;-52
2021/07/02 12:33:07;;;;;;;3.47;2.37;;;;;;;29.63;51.60;99771.86;1834096;77;22171;-52
2021/07/02 12:35:42;;;;;;;3.92;2.22;;;;;;;29.54;51.39;99775.02;1834868;77;22671;-64
2021/07/02 12:38:17;;;;;;;5.47;2.85;;;;;;;29.39;51.77;99774.73;1829600;77;22183;-64